Rochester International Airport Rochester US
ICAO: KRST
IATA: RST
Category: Large
Scheduled Services: Yes

Elevation: 1317 ft
TransAlt. 18000 ft.

Airport Communications:
APP/DEP:119.2
ATIS:120.5
CTAF:118.3
GND:121.9
PRINCETON RDO:122.45
TWR:118.3
UNICOM:122.95

KRST Zoom In..

If you have problems with the map follow the link
https://www.worldairports.se/pages/airport.php?
ICAO=KRST

Runways:

(A) RW 02 length 7301 ft width 150 ft
---- / hdg 25

(B) RW 13 length 9033 ft width 150 ft
ILS 109.10 / hdg 131

(C) RW 20 length 7301 ft width 150 ft
---- / hdg 205

(D) RW 31 length 9033 ft width 150 ft
ILS 108.50 / hdg 311

Location; KRST
Day. 06 / Time. 12.04 Zulu
* Altimeter: 30.26
* Temperature: -05° c. -23°f.
* Wind from: 320° Speed 13 kn.
Dewpoint: -08° c.
Visibility: 10 Statute Miles.
Clouds: Scattered 1900 ft.

KRST 061204Z 32013KT 10SM SCT019 M05/M08 A3026 RMK AO2 T10501078


Wind From 320°
Speed 13 kn.

 
 
jpsmedia worldairports.se 2019   terms of use